createdAt,value
2018-03-27T00:00:25.878Z,4.98
2018-03-27T00:02:58.605Z,4.99
2018-03-27T00:05:31.182Z,4.98
2018-03-27T00:08:03.419Z,4.99
2018-03-27T00:10:35.540Z,5.00
2018-03-27T00:13:08.700Z,5.00
2018-03-27T00:15:41.401Z,5.01
2018-03-27T00:18:14.143Z,5.02
2018-03-27T00:20:47.202Z,5.01
2018-03-27T00:23:21.140Z,5.02
2018-03-27T00:25:56.985Z,5.01
2018-03-27T00:28:46.183Z,5.01
2018-03-27T00:31:35.117Z,5.00
2018-03-27T00:34:23.559Z,4.98
2018-03-27T00:37:12.302Z,4.98
2018-03-27T00:40:01.731Z,4.99
2018-03-27T00:42:40.644Z,4.98
2018-03-27T00:45:13.154Z,4.99
2018-03-27T00:47:46.260Z,5.00
2018-03-27T00:50:18.973Z,5.01
2018-03-27T00:52:51.135Z,5.02
2018-03-27T00:55:23.767Z,5.04
2018-03-27T00:57:55.939Z,5.03
2018-03-27T01:00:28.035Z,5.06
2018-03-27T01:03:00.136Z,5.04
2018-03-27T01:05:32.171Z,5.05
2018-03-27T01:08:04.384Z,5.05
2018-03-27T01:10:37.744Z,5.07
2018-03-27T01:13:10.104Z,5.05
2018-03-27T01:15:42.141Z,5.05
2018-03-27T01:18:14.387Z,5.06
2018-03-27T01:20:47.125Z,5.07
2018-03-27T01:23:20.344Z,5.07
2018-03-27T01:25:52.524Z,5.06
2018-03-27T01:28:24.865Z,5.06
2018-03-27T01:30:57.140Z,5.07
2018-03-27T01:33:29.466Z,5.08
2018-03-27T01:36:01.501Z,5.08
2018-03-27T01:38:34.682Z,5.09
2018-03-27T01:41:06.902Z,5.09
2018-03-27T01:43:39.326Z,5.09
2018-03-27T01:46:11.581Z,5.09
2018-03-27T01:48:43.644Z,5.07
2018-03-27T01:51:16.685Z,5.07
2018-03-27T01:53:48.889Z,5.06
2018-03-27T01:56:21.021Z,5.05
2018-03-27T01:58:54.167Z,5.06
2018-03-27T02:01:28.118Z,5.04
2018-03-27T02:04:01.847Z,5.07
2018-03-27T02:06:34.944Z,5.07
2018-03-27T02:09:09.249Z,5.07
2018-03-27T02:11:48.084Z,5.08
2018-03-27T02:14:27.671Z,5.08
2018-03-27T02:17:07.085Z,5.08
2018-03-27T02:19:45.464Z,5.09
2018-03-27T02:22:18.766Z,5.10
